N751XP LGKR-LLER
Flight info
| Callsign | N751XP |
|---|---|
| Flight time | N/A |
| Altitude | 45000 |
| Route | MALED UA14 ARA UL612 SIT L612 BLT A16 CVO L315 OBTAV W727 SHM R650 NALSO J10 NURIT |
| Aircraft | C750/M-SBDE3FGHRWXY/S |
Departure
| Time | N/A |
|---|---|
| Airport | Corfu Ioannis Kapodistrias International Airport (LGKR) |
Arrival
| Time | 2026-04-27 17:33 |
|---|---|
| Airport | Ramon International Airport (LLER) |
| Time | Latitude | Longitude | Altitude | Speed | Heading |
|---|---|---|---|---|---|
| 2026-04-27 16:39 | 31.07664 | 31.20707 | 44990 ft | 528 kts | 176° |
| 2026-04-27 16:40 | 31.04040 | 31.21379 | 44985 ft | 528 kts | 176° |
| 2026-04-27 16:40 | 30.96787 | 31.22727 | 44984 ft | 528 kts | 176° |
| 2026-04-27 16:41 | 30.89509 | 31.24076 | 44985 ft | 527 kts | 176° |
| 2026-04-27 16:41 | 30.82270 | 31.25416 | 44984 ft | 527 kts | 176° |
| 2026-04-27 16:42 | 30.75023 | 31.26756 | 44981 ft | 527 kts | 176° |
| 2026-04-27 16:42 | 30.67779 | 31.28092 | 44981 ft | 527 kts | 176° |
| 2026-04-27 16:43 | 30.60562 | 31.29424 | 44982 ft | 527 kts | 176° |
| 2026-04-27 16:43 | 30.53323 | 31.30753 | 44982 ft | 526 kts | 176° |
| 2026-04-27 16:44 | 30.46080 | 31.32086 | 44977 ft | 526 kts | 176° |
| 2026-04-27 16:44 | 30.38887 | 31.33408 | 44976 ft | 525 kts | 176° |
| 2026-04-27 16:45 | 30.31639 | 31.34738 | 44976 ft | 525 kts | 176° |
| 2026-04-27 16:45 | 30.24404 | 31.36064 | 44976 ft | 526 kts | 176° |
| 2026-04-27 16:46 | 30.17157 | 31.37391 | 44984 ft | 525 kts | 176° |
| 2026-04-27 16:46 | 30.09973 | 31.38936 | 44919 ft | 533 kts | 165° |
| 2026-04-27 16:46 | 30.06661 | 31.40980 | 45103 ft | 541 kts | 148° |
| 2026-04-27 16:47 | 30.03680 | 31.43576 | 44972 ft | 546 kts | 147° |
| 2026-04-27 16:47 | 29.97579 | 31.48794 | 44978 ft | 547 kts | 147° |
| 2026-04-27 16:48 | 29.91469 | 31.54006 | 45003 ft | 547 kts | 148° |
| 2026-04-27 16:48 | 29.85362 | 31.59207 | 45019 ft | 547 kts | 148° |
| 2026-04-27 16:49 | 29.76157 | 31.67031 | 44982 ft | 547 kts | 148° |
| 2026-04-27 16:49 | 29.70027 | 31.72233 | 45015 ft | 547 kts | 148° |
| 2026-04-27 16:50 | 29.63932 | 31.77395 | 45003 ft | 547 kts | 148° |
| 2026-04-27 16:50 | 29.57805 | 31.82577 | 45012 ft | 547 kts | 148° |
| 2026-04-27 16:51 | 29.51667 | 31.87758 | 44996 ft | 546 kts | 148° |
| 2026-04-27 16:51 | 29.45543 | 31.92923 | 44999 ft | 545 kts | 148° |
| 2026-04-27 16:52 | 29.39424 | 31.98075 | 45035 ft | 546 kts | 149° |
| 2026-04-27 16:52 | 29.33327 | 32.03197 | 45023 ft | 546 kts | 148° |
| 2026-04-27 16:53 | 29.27174 | 32.08362 | 45017 ft | 547 kts | 148° |
| 2026-04-27 16:53 | 29.21077 | 32.13473 | 45022 ft | 546 kts | 149° |
| 2026-04-27 16:54 | 29.14907 | 32.18633 | 45008 ft | 546 kts | 149° |
| 2026-04-27 16:54 | 29.08784 | 32.23751 | 44996 ft | 546 kts | 149° |
| 2026-04-27 16:55 | 29.02669 | 32.28851 | 44986 ft | 545 kts | 149° |
| 2026-04-27 16:55 | 28.96530 | 32.33964 | 44983 ft | 546 kts | 149° |
| 2026-04-27 16:56 | 28.90405 | 32.39058 | 44996 ft | 546 kts | 149° |
| 2026-04-27 16:56 | 28.84242 | 32.44181 | 44996 ft | 546 kts | 149° |
| 2026-04-27 16:57 | 28.78117 | 32.49256 | 44987 ft | 547 kts | 149° |
| 2026-04-27 16:57 | 28.71945 | 32.54367 | 44987 ft | 548 kts | 149° |
| 2026-04-27 16:58 | 28.66121 | 32.59922 | 44956 ft | 560 kts | 131° |
| 2026-04-27 16:58 | 28.62448 | 32.67789 | 44992 ft | 571 kts | 103° |
| 2026-04-27 16:59 | 28.62069 | 32.72287 | 44929 ft | 577 kts | 90° |
| 2026-04-27 16:59 | 28.62038 | 32.76799 | 45057 ft | 575 kts | 93° |
| 2026-04-27 16:59 | 28.61825 | 32.81334 | 44907 ft | 578 kts | 95° |
| 2026-04-27 16:59 | 28.61573 | 32.85871 | 44947 ft | 579 kts | 95° |
| 2026-04-27 17:00 | 28.60798 | 32.99601 | 44944 ft | 581 kts | 95° |
| 2026-04-27 17:01 | 28.60274 | 33.08716 | 44934 ft | 581 kts | 95° |
| 2026-04-27 17:01 | 28.59738 | 33.17905 | 44942 ft | 581 kts | 95° |
| 2026-04-27 17:02 | 28.59198 | 33.27081 | 44949 ft | 581 kts | 95° |
| 2026-04-27 17:02 | 28.58653 | 33.36233 | 44955 ft | 581 kts | 95° |
| 2026-04-27 17:03 | 28.58101 | 33.45389 | 44957 ft | 581 kts | 95° |
| 2026-04-27 17:03 | 28.57547 | 33.54487 | 44945 ft | 581 kts | 95° |
| 2026-04-27 17:04 | 28.56985 | 33.63645 | 44989 ft | 581 kts | 95° |
| 2026-04-27 17:04 | 28.56419 | 33.72785 | 45008 ft | 580 kts | 96° |
| 2026-04-27 17:05 | 28.55844 | 33.81884 | 45033 ft | 580 kts | 96° |
| 2026-04-27 17:05 | 28.55261 | 33.90997 | 45021 ft | 581 kts | 96° |
| 2026-04-27 17:06 | 28.54673 | 34.00158 | 45034 ft | 582 kts | 96° |
| 2026-04-27 17:06 | 28.54074 | 34.09372 | 45023 ft | 583 kts | 96° |
| 2026-04-27 17:07 | 28.53475 | 34.18494 | 45019 ft | 584 kts | 96° |
| 2026-04-27 17:07 | 28.52871 | 34.27702 | 45028 ft | 585 kts | 96° |
| 2026-04-27 17:08 | 28.52247 | 34.36929 | 45009 ft | 585 kts | 96° |
| 2026-04-27 17:08 | 28.52776 | 34.46028 | 45067 ft | 581 kts | 69° |
| 2026-04-27 17:08 | 28.54551 | 34.50048 | 45098 ft | 552 kts | 51° |
| 2026-04-27 17:09 | 28.57007 | 34.53192 | 44683 ft | 528 kts | 38° |
| 2026-04-27 17:09 | 28.59905 | 34.55624 | 43938 ft | 505 kts | 19° |
| 2026-04-27 17:09 | 28.63143 | 34.56881 | 43076 ft | 478 kts | 2° |
| 2026-04-27 17:09 | 28.66352 | 34.57608 | 42240 ft | 474 kts | 3° |
| 2026-04-27 17:10 | 28.69577 | 34.58421 | 41326 ft | 471 kts | 4° |
| 2026-04-27 17:10 | 28.72753 | 34.59235 | 40420 ft | 467 kts | 4° |
| 2026-04-27 17:10 | 28.75898 | 34.60046 | 39523 ft | 463 kts | 3° |
| 2026-04-27 17:10 | 28.79036 | 34.60858 | 38553 ft | 460 kts | 3° |
| 2026-04-27 17:11 | 28.82129 | 34.61657 | 37690 ft | 455 kts | 2° |
| 2026-04-27 17:11 | 28.88255 | 34.63229 | 36328 ft | 445 kts | 3° |
| 2026-04-27 17:11 | 28.91223 | 34.63997 | 35659 ft | 440 kts | 4° |
| 2026-04-27 17:12 | 28.97146 | 34.65527 | 34427 ft | 430 kts | 5° |
| 2026-04-27 17:12 | 29.00018 | 34.66272 | 33867 ft | 425 kts | 5° |
| 2026-04-27 17:12 | 29.02904 | 34.67027 | 33250 ft | 421 kts | 7° |
| 2026-04-27 17:13 | 29.05658 | 34.68071 | 32564 ft | 422 kts | 14° |
| 2026-04-27 17:13 | 29.06871 | 34.68585 | 32225 ft | 421 kts | 13° |
| 2026-04-27 17:13 | 29.07347 | 34.68783 | 32090 ft | 420 kts | 13° |
| 2026-04-27 17:13 | 29.10054 | 34.69897 | 31333 ft | 417 kts | 13° |
| 2026-04-27 17:14 | 29.12757 | 34.71006 | 30579 ft | 414 kts | 13° |
| 2026-04-27 17:14 | 29.15452 | 34.72110 | 29820 ft | 411 kts | 14° |
| 2026-04-27 17:14 | 29.18179 | 34.73229 | 28602 ft | 418 kts | 14° |
| 2026-04-27 17:14 | 29.20888 | 34.74340 | 27591 ft | 415 kts | 14° |
| 2026-04-27 17:15 | 29.23612 | 34.75258 | 26824 ft | 403 kts | 8° |
| 2026-04-27 17:15 | 29.26327 | 34.76062 | 26030 ft | 396 kts | 7° |
| 2026-04-27 17:15 | 29.28959 | 34.76146 | 25139 ft | 372 kts | 341° |
| 2026-04-27 17:15 | 29.31158 | 34.74765 | 23621 ft | 365 kts | 309° |
| 2026-04-27 17:16 | 29.32107 | 34.72158 | 22288 ft | 363 kts | 272° |
| 2026-04-27 17:16 | 29.31151 | 34.69558 | 21227 ft | 375 kts | 229° |
| 2026-04-27 17:16 | 29.28709 | 34.68372 | 19563 ft | 410 kts | 189° |
| 2026-04-27 17:16 | 29.25934 | 34.68033 | 18807 ft | 395 kts | 193° |
| 2026-04-27 17:17 | 29.23256 | 34.67525 | 17683 ft | 390 kts | 197° |
| 2026-04-27 17:17 | 29.20701 | 34.67098 | 17543 ft | 363 kts | 197° |
| 2026-04-27 17:17 | 29.18230 | 34.66879 | 17189 ft | 354 kts | 176° |
| 2026-04-27 17:18 | 29.14411 | 34.69952 | 16657 ft | 335 kts | 116° |
| 2026-04-27 17:18 | 29.13910 | 34.72441 | 16400 ft | 317 kts | 84° |
| 2026-04-27 17:18 | 29.14512 | 34.74747 | 16152 ft | 291 kts | 50° |
| 2026-04-27 17:18 | 29.15923 | 34.76177 | 15922 ft | 260 kts | 15° |
| 2026-04-27 17:19 | 29.17596 | 34.76406 | 15721 ft | 232 kts | 345° |
| 2026-04-27 17:19 | 29.19157 | 34.76064 | 15483 ft | 223 kts | 343° |
| 2026-04-27 17:19 | 29.20657 | 34.75768 | 15225 ft | 219 kts | 347° |
| 2026-04-27 17:19 | 29.22192 | 34.75739 | 14953 ft | 224 kts | 359° |
| 2026-04-27 17:20 | 29.23777 | 34.76007 | 14740 ft | 233 kts | 5° |
| 2026-04-27 17:20 | 29.25381 | 34.76439 | 14522 ft | 238 kts | 9° |
| 2026-04-27 17:20 | 29.27000 | 34.76987 | 14305 ft | 245 kts | 11° |
| 2026-04-27 17:20 | 29.28583 | 34.77571 | 14081 ft | 238 kts | 12° |
| 2026-04-27 17:21 | 29.30147 | 34.78175 | 13832 ft | 233 kts | 13° |
| 2026-04-27 17:21 | 29.31701 | 34.78797 | 13596 ft | 239 kts | 13° |
| 2026-04-27 17:21 | 29.33299 | 34.79447 | 13424 ft | 247 kts | 14° |
| 2026-04-27 17:21 | 29.34952 | 34.80126 | 13293 ft | 254 kts | 14° |
| 2026-04-27 17:22 | 29.36651 | 34.80824 | 13188 ft | 259 kts | 14° |
| 2026-04-27 17:22 | 29.38365 | 34.81537 | 13095 ft | 256 kts | 15° |
| 2026-04-27 17:22 | 29.40069 | 34.82237 | 12431 ft | 264 kts | 15° |
| 2026-04-27 17:22 | 29.41824 | 34.82958 | 11777 ft | 270 kts | 16° |
| 2026-04-27 17:23 | 29.43598 | 34.83693 | 11123 ft | 275 kts | 16° |
| 2026-04-27 17:23 | 29.45408 | 34.84439 | 10466 ft | 278 kts | 16° |
| 2026-04-27 17:23 | 29.47216 | 34.85184 | 10065 ft | 269 kts | 17° |
| 2026-04-27 17:23 | 29.48953 | 34.85905 | 9566 ft | 268 kts | 17° |
| 2026-04-27 17:24 | 29.50715 | 34.86632 | 9032 ft | 267 kts | 17° |
| 2026-04-27 17:24 | 29.52452 | 34.87347 | 8339 ft | 272 kts | 17° |
| 2026-04-27 17:24 | 29.54110 | 34.88449 | 7584 ft | 282 kts | 43° |
| 2026-04-27 17:24 | 29.55318 | 34.90153 | 6957 ft | 277 kts | 47° |
| 2026-04-27 17:25 | 29.56604 | 34.91826 | 6088 ft | 279 kts | 46° |
| 2026-04-27 17:25 | 29.57842 | 34.93537 | 5231 ft | 281 kts | 49° |
| 2026-04-27 17:25 | 29.59171 | 34.95031 | 4912 ft | 257 kts | 31° |
| 2026-04-27 17:25 | 29.60716 | 34.95985 | 4479 ft | 245 kts | 26° |
| 2026-04-27 17:26 | 29.62264 | 34.96653 | 3930 ft | 239 kts | 7° |
| 2026-04-27 17:26 | 29.63832 | 34.96485 | 3814 ft | 213 kts | 339° |
| 2026-04-27 17:26 | 29.65033 | 34.95657 | 3703 ft | 196 kts | 323° |
| 2026-04-27 17:26 | 29.66088 | 34.94768 | 3544 ft | 181 kts | 330° |
| 2026-04-27 17:27 | 29.67029 | 34.93875 | 3493 ft | 179 kts | 307° |
| 2026-04-27 17:27 | 29.67480 | 34.92471 | 3617 ft | 188 kts | 274° |
| 2026-04-27 17:27 | 29.67075 | 34.91047 | 3963 ft | 196 kts | 238° |
| 2026-04-27 17:27 | 29.66045 | 34.89904 | 3959 ft | 216 kts | 214° |
| 2026-04-27 17:28 | 29.64602 | 34.89341 | 3995 ft | 225 kts | 198° |
| 2026-04-27 17:28 | 29.63106 | 34.88730 | 4041 ft | 228 kts | 200° |
| 2026-04-27 17:28 | 29.60326 | 34.89915 | 3952 ft | 233 kts | 116° |
| 2026-04-27 17:29 | 29.60015 | 34.91658 | 3930 ft | 225 kts | 81° |
| 2026-04-27 17:29 | 29.60197 | 34.93458 | 3824 ft | 217 kts | 78° |
| 2026-04-27 17:29 | 29.60366 | 34.95121 | 3543 ft | 212 kts | 79° |
| 2026-04-27 17:29 | 29.60608 | 34.96789 | 3033 ft | 208 kts | 65° |
| 2026-04-27 17:30 | 29.61384 | 34.98072 | 2553 ft | 198 kts | 39° |
| 2026-04-27 17:30 | 29.63637 | 34.99216 | 1727 ft | 178 kts | 355° |
| 2026-04-27 17:30 | 29.64769 | 34.99251 | 1541 ft | 151 kts | 2° |
| 2026-04-27 17:31 | 29.65777 | 34.99488 | 1223 ft | 148 kts | 13° |
| 2026-04-27 17:31 | 29.66752 | 34.99809 | 1078 ft | 144 kts | 9° |
| 2026-04-27 17:31 | 29.67741 | 35.00053 | 954 ft | 147 kts | 6° |
| 2026-04-27 17:31 | 29.68761 | 35.00312 | 737 ft | 155 kts | 11° |
| 2026-04-27 17:32 | 29.69792 | 35.00605 | 546 ft | 143 kts | 10° |
| 2026-04-27 17:32 | 29.71581 | 35.01098 | 283 ft | 123 kts | 10° |
| 2026-04-27 17:32 | 29.72311 | 35.01291 | 288 ft | 87 kts | 14° |
| 2026-04-27 17:33 | 29.72703 | 35.01405 | 291 ft | 50 kts | 13° |
| 2026-04-27 17:33 | 29.73013 | 35.01495 | 291 ft | 31 kts | 14° |
| 2026-04-27 17:33 | 29.73208 | 35.01508 | 293 ft | 27 kts | 354° |
| 2026-04-27 17:33 | 29.73332 | 35.01474 | 294 ft | 0 kts | 341° |
| 2026-04-27 17:34 | 29.73356 | 35.01465 | 295 ft | 4 kts | 341° |
| 2026-04-27 17:34 | 29.73376 | 35.01397 | 298 ft | 22 kts | 243° |
| 2026-04-27 17:35 | 29.73384 | 35.01217 | 306 ft | 28 kts | 282° |
| 2026-04-27 17:35 | 29.73273 | 35.01102 | 312 ft | 23 kts | 195° |
| 2026-04-27 17:35 | 29.73121 | 35.01057 | 311 ft | 22 kts | 195° |
| 2026-04-27 17:35 | 29.72971 | 35.01017 | 313 ft | 21 kts | 188° |
| 2026-04-27 17:36 | 29.72826 | 35.00982 | 312 ft | 21 kts | 194° |
| 2026-04-27 17:36 | 29.72684 | 35.00941 | 311 ft | 20 kts | 194° |
| 2026-04-27 17:36 | 29.72552 | 35.00901 | 311 ft | 7 kts | 195° |
| 2026-04-27 17:36 | 29.72546 | 35.00899 | 311 ft | 4 kts | 196° |
| 2026-04-27 17:37 | 29.72514 | 35.00851 | 313 ft | 6 kts | 268° |
| 2026-04-27 17:37 | 29.72519 | 35.00809 | 315 ft | 4 kts | 283° |
| 2026-04-27 17:37 | 29.72522 | 35.00794 | 316 ft | 0 kts | 284° |
| 2026-04-27 17:37 | 29.72525 | 35.00783 | 316 ft | 0 kts | 284° |
| 2026-04-27 17:38 | 29.72524 | 35.00784 | 316 ft | 0 kts | 284° |